createdAt,value
2018-09-09T00:01:22.713Z,14.40
2018-09-09T00:03:50.939Z,14.50
2018-09-09T00:06:19.173Z,14.50
2018-09-09T00:08:47.506Z,14.50
2018-09-09T00:11:15.961Z,14.50
2018-09-09T00:13:44.185Z,14.50
2018-09-09T00:16:12.717Z,14.50
2018-09-09T00:18:40.961Z,14.50
2018-09-09T00:21:09.165Z,14.50
2018-09-09T00:23:37.393Z,14.50
2018-09-09T00:26:05.777Z,14.50
2018-09-09T00:28:34.717Z,14.60
2018-09-09T00:31:02.966Z,14.60
2018-09-09T00:33:31.224Z,14.60
2018-09-09T00:35:59.465Z,14.60
2018-09-09T00:38:28.155Z,14.60
2018-09-09T00:40:56.378Z,14.60
2018-09-09T00:43:24.674Z,14.60
2018-09-09T00:45:53.108Z,14.60
2018-09-09T00:48:21.441Z,14.60
2018-09-09T00:50:55.043Z,14.60
2018-09-09T00:53:28.636Z,14.60
2018-09-09T00:55:57.255Z,14.60
2018-09-09T00:58:25.485Z,14.60
2018-09-09T01:00:58.921Z,14.60
2018-09-09T01:03:27.151Z,14.70
2018-09-09T01:05:55.411Z,14.60
2018-09-09T01:08:23.672Z,14.70
2018-09-09T01:10:52.172Z,14.70
2018-09-09T01:13:20.441Z,14.70
2018-09-09T01:15:49.090Z,14.70
2018-09-09T01:18:17.319Z,14.70
2018-09-09T01:20:45.549Z,14.70
2018-09-09T01:23:13.912Z,14.60
2018-09-09T01:25:42.122Z,14.60
2018-09-09T01:28:10.361Z,14.60
2018-09-09T01:30:38.602Z,14.60
2018-09-09T01:33:06.834Z,14.70
2018-09-09T01:35:35.100Z,14.60
2018-09-09T01:38:03.606Z,14.60
2018-09-09T01:40:31.823Z,14.60
2018-09-09T01:43:00.092Z,14.60
2018-09-09T01:45:28.601Z,14.60
2018-09-09T01:47:56.809Z,14.60
2018-09-09T01:50:25.035Z,14.60
2018-09-09T01:52:53.390Z,14.60
2018-09-09T01:55:21.630Z,14.60
2018-09-09T01:57:49.933Z,14.70
2018-09-09T02:00:18.264Z,14.70
2018-09-09T02:02:46.913Z,14.60
2018-09-09T02:05:15.174Z,14.60
2018-09-09T02:07:43.554Z,14.60
2018-09-09T02:10:11.785Z,14.60
2018-09-09T02:12:40.033Z,14.60
2018-09-09T02:15:08.317Z,14.60
2018-09-09T02:17:36.534Z,14.60
2018-09-09T02:20:04.735Z,14.70
2018-09-09T02:24:54.053Z,14.70
2018-09-09T02:27:22.339Z,14.70
2018-09-09T02:29:50.565Z,14.70
2018-09-09T02:32:18.874Z,14.70
2018-09-09T02:34:47.096Z,14.70
2018-09-09T02:37:15.322Z,14.70
2018-09-09T02:39:43.549Z,14.70
2018-09-09T02:42:11.774Z,14.70
2018-09-09T02:44:40.050Z,14.70
2018-09-09T02:47:08.533Z,14.70
2018-09-09T02:49:36.734Z,14.70
2018-09-09T02:52:04.950Z,14.80
2018-09-09T02:54:33.302Z,14.80
2018-09-09T02:57:01.553Z,14.80
2018-09-09T02:59:30.548Z,14.80
2018-09-09T03:01:58.793Z,14.80
2018-09-09T03:04:27.025Z,14.80
2018-09-09T03:06:55.249Z,14.80
2018-09-09T03:09:23.646Z,14.80
2018-09-09T03:11:51.896Z,14.80
2018-09-09T03:14:20.110Z,14.80
2018-09-09T03:16:48.726Z,14.80
2018-09-09T03:19:16.949Z,14.80
2018-09-09T03:21:45.184Z,14.80
2018-09-09T03:24:14.054Z,14.80
2018-09-09T03:26:42.265Z,14.80
2018-09-09T03:29:10.481Z,14.90
2018-09-09T03:31:38.705Z,14.90
2018-09-09T03:34:06.958Z,14.80
2018-09-09T03:36:35.185Z,14.80
2018-09-09T03:39:04.814Z,14.80
2018-09-09T03:41:33.042Z,14.80
2018-09-09T03:44:01.274Z,14.80
2018-09-09T03:46:29.586Z,14.80
2018-09-09T03:48:57.825Z,14.80
2018-09-09T03:51:26.049Z,14.80
2018-09-09T03:53:54.398Z,14.80
2018-09-09T03:56:22.654Z,14.80
2018-09-09T03:58:51.074Z,14.70
2018-09-09T04:01:20.097Z,14.70
2018-09-09T04:03:48.404Z,14.70
2018-09-09T04:06:16.693Z,14.70
2018-09-09T04:08:45.034Z,14.70
2018-09-09T04:11:13.313Z,14.70
2018-09-09T04:13:42.722Z,14.70
2018-09-09T04:16:12.526Z,14.70
2018-09-09T04:18:41.498Z,14.70
2018-09-09T04:21:09.829Z,14.70
2018-09-09T04:23:38.426Z,14.70
2018-09-09T04:26:06.897Z,14.70
2018-09-09T04:28:35.287Z,14.70
2018-09-09T04:31:03.536Z,14.70
2018-09-09T04:33:31.785Z,14.70
2018-09-09T04:36:00.050Z,14.70
2018-09-09T04:38:28.293Z,14.70
2018-09-09T04:40:56.530Z,14.70
2018-09-09T04:43:24.757Z,14.70
2018-09-09T04:45:53.129Z,14.70
2018-09-09T04:48:22.001Z,14.70
2018-09-09T04:50:50.219Z,14.70
2018-09-09T04:53:18.662Z,14.70
2018-09-09T04:55:46.895Z,14.70
2018-09-09T04:58:15.137Z,14.70
2018-09-09T05:00:43.377Z,14.70
2018-09-09T05:03:11.825Z,14.70
2018-09-09T05:05:40.165Z,14.70
2018-09-09T05:08:08.694Z,14.70
2018-09-09T05:10:36.910Z,14.70
2018-09-09T05:13:05.378Z,14.70
2018-09-09T05:15:33.593Z,14.70
2018-09-09T05:18:01.841Z,14.80
2018-09-09T05:20:30.078Z,14.80
2018-09-09T05:22:58.485Z,14.80
2018-09-09T05:25:26.714Z,14.80
2018-09-09T05:27:54.942Z,14.80
2018-09-09T05:30:23.362Z,14.80
2018-09-09T05:32:51.585Z,14.80
2018-09-09T05:35:20.327Z,14.80
2018-09-09T05:37:49.115Z,14.80
2018-09-09T05:40:17.383Z,14.80
2018-09-09T05:42:45.629Z,14.90
2018-09-09T05:45:14.332Z,14.90
2018-09-09T05:47:42.934Z,15.00
2018-09-09T05:50:11.238Z,15.00
2018-09-09T05:52:39.766Z,15.00
2018-09-09T05:55:08.038Z,15.00
2018-09-09T05:57:39.463Z,15.00
2018-09-09T06:00:09.703Z,15.00
2018-09-09T06:02:38.043Z,15.10
2018-09-09T06:05:07.463Z,15.20
2018-09-09T06:07:35.696Z,15.30
2018-09-09T06:10:04.426Z,15.30
2018-09-09T06:12:33.262Z,15.30
2018-09-09T06:15:01.455Z,15.30
2018-09-09T06:17:29.720Z,15.30
2018-09-09T06:19:58.007Z,15.30
2018-09-09T06:22:26.275Z,15.30
2018-09-09T06:24:54.511Z,15.30
2018-09-09T06:27:23.149Z,15.30
2018-09-09T06:29:51.448Z,15.30
2018-09-09T06:32:19.669Z,15.40
2018-09-09T06:34:48.102Z,15.40
2018-09-09T06:37:16.321Z,15.50
2018-09-09T06:39:44.561Z,15.40
2018-09-09T06:42:12.798Z,15.50
2018-09-09T06:44:41.004Z,15.50
2018-09-09T06:47:09.246Z,15.50
2018-09-09T06:49:37.497Z,15.60
2018-09-09T06:52:05.718Z,15.60
2018-09-09T06:54:33.953Z,15.70
2018-09-09T06:57:02.331Z,15.70
2018-09-09T06:59:30.545Z,15.80
2018-09-09T07:01:58.773Z,15.80
2018-09-09T07:04:27.166Z,15.80
2018-09-09T07:06:55.431Z,15.80
2018-09-09T07:09:23.689Z,15.90
2018-09-09T07:11:52.196Z,15.90
2018-09-09T07:14:20.362Z,15.90
2018-09-09T07:16:48.585Z,16.00
2018-09-09T07:19:17.128Z,16.10
2018-09-09T07:21:45.405Z,16.20
2018-09-09T07:24:13.659Z,16.30
2018-09-09T07:26:41.918Z,16.50
2018-09-09T07:29:10.242Z,16.60
2018-09-09T07:31:38.470Z,16.60
2018-09-09T07:34:07.241Z,16.50
2018-09-09T07:36:35.426Z,16.70
2018-09-09T07:39:04.616Z,16.90
2018-09-09T07:41:32.857Z,16.90
2018-09-09T07:44:01.103Z,17.00
2018-09-09T07:46:29.427Z,17.00
2018-09-09T07:48:57.685Z,17.10
2018-09-09T07:51:25.894Z,17.00
2018-09-09T07:53:54.120Z,17.00
2018-09-09T07:56:22.654Z,17.20
2018-09-09T07:58:50.879Z,17.30
2018-09-09T08:01:19.061Z,17.30
2018-09-09T08:03:50.029Z,17.30
2018-09-09T08:06:18.248Z,17.30
2018-09-09T08:08:46.509Z,17.40
2018-09-09T08:11:14.778Z,17.50
2018-09-09T08:13:42.961Z,17.60
2018-09-09T08:16:11.213Z,17.70
2018-09-09T08:18:39.918Z,17.80
2018-09-09T08:21:08.114Z,17.80
2018-09-09T08:23:37.432Z,17.80
2018-09-09T08:26:05.930Z,17.80
2018-09-09T08:28:34.286Z,17.80
2018-09-09T08:31:02.506Z,17.80
2018-09-09T08:33:30.738Z,17.80
2018-09-09T08:35:58.986Z,18.00
2018-09-09T08:38:27.253Z,18.00
2018-09-09T08:40:55.601Z,18.10
2018-09-09T08:43:23.797Z,18.20
2018-09-09T08:45:52.274Z,18.20
2018-09-09T08:48:20.573Z,18.20
2018-09-09T08:50:49.697Z,18.20
2018-09-09T08:53:17.969Z,18.40
2018-09-09T08:55:46.269Z,18.60
2018-09-09T08:58:14.486Z,18.80
2018-09-09T09:00:42.706Z,19.10
2018-09-09T09:03:10.914Z,19.30
2018-09-09T09:05:39.118Z,19.20
2018-09-09T09:08:07.671Z,19.20
2018-09-09T09:10:36.021Z,19.30
2018-09-09T09:13:04.238Z,19.30
2018-09-09T09:15:32.446Z,19.50
2018-09-09T09:18:00.856Z,19.40
2018-09-09T09:20:29.961Z,19.30
2018-09-09T09:22:58.231Z,19.40
2018-09-09T09:25:26.546Z,19.30
2018-09-09T09:27:54.798Z,19.20
2018-09-09T09:30:23.016Z,19.40
2018-09-09T09:32:51.243Z,19.60
2018-09-09T09:35:19.445Z,19.80
2018-09-09T09:37:47.625Z,20.30
2018-09-09T09:40:15.838Z,20.50
2018-09-09T09:42:44.024Z,20.30
2018-09-09T09:45:12.222Z,20.60
2018-09-09T09:47:40.685Z,20.60
2018-09-09T09:50:09.229Z,20.90
2018-09-09T09:52:37.417Z,20.90
2018-09-09T09:55:11.044Z,21.20
2018-09-09T09:57:41.722Z,21.30
2018-09-09T10:00:17.156Z,21.40
2018-09-09T10:02:45.401Z,21.40
2018-09-09T10:05:13.694Z,21.20
2018-09-09T10:07:42.459Z,20.80
2018-09-09T10:10:12.564Z,20.80
2018-09-09T10:12:40.874Z,20.70
2018-09-09T10:15:09.843Z,20.60
2018-09-09T10:17:38.458Z,20.40
2018-09-09T10:20:10.485Z,21.20
2018-09-09T10:22:39.679Z,21.60
2018-09-09T10:25:11.114Z,21.90
2018-09-09T10:27:40.137Z,22.10
2018-09-09T10:30:08.429Z,21.90
2018-09-09T10:32:38.567Z,22.10
2018-09-09T10:35:08.277Z,21.50
2018-09-09T10:37:36.591Z,21.50
2018-09-09T10:40:06.285Z,21.50
2018-09-09T10:42:35.457Z,21.30
2018-09-09T10:45:05.148Z,21.60
2018-09-09T10:47:34.940Z,22.10
2018-09-09T10:50:03.805Z,22.50
2018-09-09T10:52:32.017Z,22.50
2018-09-09T10:55:00.406Z,22.50
2018-09-09T10:57:36.109Z,22.90
2018-09-09T11:00:04.671Z,22.90
2018-09-09T11:02:35.294Z,23.00
2018-09-09T11:05:03.550Z,22.90
2018-09-09T11:07:32.618Z,23.20
2018-09-09T11:10:02.827Z,23.00
2018-09-09T11:12:31.801Z,23.00
2018-09-09T11:15:01.886Z,22.80
2018-09-09T11:17:31.701Z,22.80
2018-09-09T11:20:00.817Z,22.30
2018-09-09T11:22:30.521Z,22.00
2018-09-09T11:24:59.385Z,21.90
2018-09-09T11:27:28.577Z,22.00
2018-09-09T11:29:56.800Z,22.00
2018-09-09T11:32:25.358Z,21.90
2018-09-09T11:34:53.590Z,22.00
2018-09-09T11:37:22.274Z,21.90
2018-09-09T11:39:52.390Z,22.10
2018-09-09T11:42:20.610Z,23.10
2018-09-09T11:44:48.921Z,23.20
2018-09-09T11:47:17.711Z,23.10
2018-09-09T11:49:46.977Z,23.40
2018-09-09T11:52:15.425Z,23.90
2018-09-09T11:54:43.866Z,24.00
2018-09-09T11:57:12.241Z,23.30
2018-09-09T11:59:40.482Z,23.40
2018-09-09T12:02:09.047Z,24.10
2018-09-09T12:04:38.741Z,24.40
2018-09-09T12:07:08.657Z,24.40
2018-09-09T12:09:36.901Z,24.00
2018-09-09T12:12:06.324Z,24.00
2018-09-09T12:14:34.737Z,24.20
2018-09-09T12:17:03.069Z,24.70
2018-09-09T12:19:31.308Z,24.40
2018-09-09T12:22:00.174Z,24.00
2018-09-09T12:24:28.481Z,23.80
2018-09-09T12:26:57.061Z,24.00
2018-09-09T12:29:25.254Z,23.80
2018-09-09T12:31:53.636Z,23.80
2018-09-09T12:34:21.899Z,24.30
2018-09-09T12:36:50.158Z,24.50
2018-09-09T12:39:18.484Z,24.40
2018-09-09T12:41:47.194Z,24.60
2018-09-09T12:44:20.863Z,24.30
2018-09-09T12:46:54.491Z,24.10
2018-09-09T12:49:22.882Z,24.10
2018-09-09T12:51:51.969Z,24.40
2018-09-09T12:54:20.323Z,25.00
2018-09-09T12:56:48.981Z,25.00
2018-09-09T12:59:17.245Z,24.80
2018-09-09T13:01:45.532Z,24.70
2018-09-09T13:04:14.422Z,24.70
2018-09-09T13:06:42.845Z,24.70
2018-09-09T13:09:13.090Z,24.90
2018-09-09T13:11:42.335Z,24.90
2018-09-09T13:14:10.523Z,24.70
2018-09-09T13:16:38.730Z,24.20
2018-09-09T13:19:06.974Z,24.00
2018-09-09T13:21:35.165Z,24.40
2018-09-09T13:24:04.386Z,24.80
2018-09-09T13:26:32.670Z,24.80
2018-09-09T13:29:00.882Z,25.10
2018-09-09T13:31:31.493Z,25.40
2018-09-09T13:33:59.818Z,25.10
2018-09-09T13:36:28.197Z,24.50
2018-09-09T13:38:56.459Z,24.10
2018-09-09T13:41:25.193Z,24.10
2018-09-09T13:43:53.470Z,24.40
2018-09-09T13:46:21.718Z,24.70
2018-09-09T13:48:53.197Z,25.00
2018-09-09T13:51:21.418Z,25.40
2018-09-09T13:53:49.654Z,25.20
2018-09-09T13:56:18.821Z,25.60
2018-09-09T13:58:47.364Z,26.10
2018-09-09T14:01:17.333Z,26.00
2018-09-09T14:03:45.983Z,25.50
2018-09-09T14:06:15.242Z,25.50
2018-09-09T14:08:43.540Z,25.10
2018-09-09T14:11:13.359Z,24.80
2018-09-09T14:13:42.701Z,24.90
2018-09-09T14:16:11.214Z,24.90
2018-09-09T14:18:40.334Z,24.70
2018-09-09T14:21:10.214Z,24.70
2018-09-09T14:23:39.675Z,24.70
2018-09-09T14:26:10.069Z,24.50
2018-09-09T14:28:38.582Z,24.60
2018-09-09T14:31:06.904Z,24.50
2018-09-09T14:33:35.345Z,24.20
2018-09-09T14:36:03.633Z,24.20
2018-09-09T14:38:32.056Z,24.10
2018-09-09T14:41:00.464Z,24.20
2018-09-09T14:43:29.797Z,24.10
2018-09-09T14:45:58.965Z,24.10
2018-09-09T14:48:27.448Z,24.10
2018-09-09T14:50:56.934Z,23.90
2018-09-09T14:53:26.062Z,24.00
2018-09-09T14:55:54.532Z,24.00
2018-09-09T14:58:22.743Z,24.00
2018-09-09T15:00:51.091Z,24.10
2018-09-09T15:03:19.592Z,24.20
2018-09-09T15:05:47.866Z,24.20
2018-09-09T15:08:16.260Z,24.20
2018-09-09T15:10:44.711Z,24.20
2018-09-09T15:13:12.979Z,24.20
2018-09-09T15:15:41.216Z,24.10
2018-09-09T15:18:09.527Z,24.00
2018-09-09T15:20:37.816Z,23.90
2018-09-09T15:23:08.169Z,23.90
2018-09-09T15:25:36.958Z,23.60
2018-09-09T15:28:05.324Z,23.50
2018-09-09T15:30:33.626Z,23.60
2018-09-09T15:33:02.065Z,23.80
2018-09-09T15:35:30.481Z,24.00
2018-09-09T15:37:58.717Z,24.00
2018-09-09T15:40:27.042Z,23.90
2018-09-09T15:42:55.410Z,23.70
2018-09-09T15:45:23.752Z,23.80
2018-09-09T15:47:52.287Z,23.80
2018-09-09T15:50:20.499Z,23.80
2018-09-09T15:52:48.721Z,23.90
2018-09-09T15:55:17.207Z,23.90
2018-09-09T15:57:45.421Z,24.00
2018-09-09T16:00:13.677Z,23.90
2018-09-09T16:02:41.873Z,23.80
2018-09-09T16:05:10.113Z,23.70
2018-09-09T16:07:39.454Z,23.60
2018-09-09T16:10:07.777Z,23.50
2018-09-09T16:12:36.018Z,23.50
2018-09-09T16:15:04.323Z,23.50
2018-09-09T16:17:32.626Z,23.50
2018-09-09T16:20:00.839Z,23.50
2018-09-09T16:22:29.059Z,23.40
2018-09-09T16:24:58.029Z,23.30
2018-09-09T16:27:26.237Z,23.30
2018-09-09T16:29:54.442Z,23.30
2018-09-09T16:32:27.920Z,23.30
2018-09-09T16:34:57.042Z,23.30
2018-09-09T16:37:46.901Z,23.30
2018-09-09T16:40:15.090Z,23.20
2018-09-09T16:42:44.725Z,23.10
2018-09-09T16:45:14.172Z,23.00
2018-09-09T16:47:43.719Z,22.90
2018-09-09T16:50:14.098Z,22.80
2018-09-09T16:52:42.570Z,22.80
2018-09-09T16:55:10.761Z,22.80
2018-09-09T16:57:39.037Z,22.70
2018-09-09T17:00:07.260Z,22.60
2018-09-09T17:02:35.455Z,22.60
2018-09-09T17:05:03.861Z,22.50
2018-09-09T17:07:32.094Z,22.50
2018-09-09T17:10:00.284Z,22.50
2018-09-09T17:12:30.081Z,22.40
2018-09-09T17:14:58.318Z,22.30
2018-09-09T17:17:26.598Z,22.30
2018-09-09T17:19:55.054Z,22.30
2018-09-09T17:22:23.528Z,22.30
2018-09-09T17:24:51.784Z,22.20
2018-09-09T17:27:20.457Z,22.10
2018-09-09T17:29:49.106Z,22.10
2018-09-09T17:32:17.341Z,22.00
2018-09-09T17:34:45.686Z,21.90
2018-09-09T17:37:14.926Z,21.90
2018-09-09T17:39:43.150Z,21.80
2018-09-09T17:42:11.714Z,21.70
2018-09-09T17:44:40.018Z,21.70
2018-09-09T17:47:08.289Z,21.60
2018-09-09T17:49:36.611Z,21.60
2018-09-09T17:52:04.818Z,21.40
2018-09-09T17:54:33.034Z,21.40
2018-09-09T17:57:01.337Z,21.20
2018-09-09T17:59:30.342Z,21.10
2018-09-09T18:01:58.583Z,21.00
2018-09-09T18:04:27.117Z,21.00
2018-09-09T18:06:55.358Z,20.90
2018-09-09T18:09:23.614Z,20.80
2018-09-09T18:11:51.896Z,20.80
2018-09-09T18:14:20.138Z,20.70
2018-09-09T18:16:48.335Z,20.70
2018-09-09T18:19:16.644Z,20.60
2018-09-09T18:21:44.854Z,20.60
2018-09-09T18:24:13.073Z,20.60
2018-09-09T18:26:42.194Z,20.60
2018-09-09T18:29:11.245Z,20.50
2018-09-09T18:31:42.490Z,20.50
2018-09-09T18:34:10.793Z,20.50
2018-09-09T18:36:39.010Z,20.50
2018-09-09T18:39:08.266Z,20.50
2018-09-09T18:41:36.386Z,20.40
2018-09-09T18:44:04.606Z,20.40
2018-09-09T18:46:32.835Z,20.40
2018-09-09T18:49:01.171Z,20.20
2018-09-09T18:51:29.410Z,20.20
2018-09-09T18:53:57.626Z,20.20
2018-09-09T18:56:26.020Z,20.20
2018-09-09T18:58:54.179Z,20.10
2018-09-09T19:01:22.594Z,20.10
2018-09-09T19:03:50.943Z,20.10
2018-09-09T19:06:19.219Z,20.10
2018-09-09T19:08:47.658Z,20.00
2018-09-09T19:11:16.138Z,20.00
2018-09-09T19:13:44.387Z,20.00
2018-09-09T19:16:12.702Z,20.00
2018-09-09T19:18:41.067Z,20.00
2018-09-09T19:21:09.356Z,20.00
2018-09-09T19:23:37.554Z,19.90
2018-09-09T19:26:06.038Z,19.90
2018-09-09T19:28:34.258Z,19.80
2018-09-09T19:31:02.510Z,19.80
2018-09-09T19:33:31.008Z,19.80
2018-09-09T19:35:59.218Z,19.80
2018-09-09T19:38:27.443Z,19.70
2018-09-09T19:40:55.666Z,19.70
2018-09-09T19:43:23.862Z,19.70
2018-09-09T19:45:52.950Z,19.70
2018-09-09T19:48:21.272Z,19.70
2018-09-09T19:50:49.492Z,19.70
2018-09-09T19:53:17.711Z,19.70
2018-09-09T19:55:45.952Z,19.70
2018-09-09T19:58:14.165Z,19.60
2018-09-09T20:00:42.385Z,19.60
2018-09-09T20:03:10.934Z,19.60
2018-09-09T20:05:39.128Z,19.70
2018-09-09T20:08:07.387Z,19.60
2018-09-09T20:10:35.654Z,19.60
2018-09-09T20:13:04.670Z,19.60
2018-09-09T20:15:35.168Z,19.60
2018-09-09T20:18:04.061Z,19.60
2018-09-09T20:20:32.288Z,19.60
2018-09-09T20:23:01.534Z,19.60
2018-09-09T20:25:30.538Z,19.50
2018-09-09T20:27:59.275Z,19.50
2018-09-09T20:30:27.782Z,19.50
2018-09-09T20:32:56.150Z,19.50
2018-09-09T20:35:24.409Z,19.50
2018-09-09T20:37:52.796Z,19.50
2018-09-09T20:40:21.028Z,19.60
2018-09-09T20:42:49.953Z,19.70
2018-09-09T20:45:19.063Z,19.70
2018-09-09T20:47:48.538Z,19.80
2018-09-09T20:50:16.898Z,19.70
2018-09-09T20:52:46.149Z,19.70
2018-09-09T20:55:14.426Z,19.70
2018-09-09T20:57:42.666Z,19.70
2018-09-09T21:00:11.031Z,19.60
2018-09-09T21:02:39.284Z,19.60
2018-09-09T21:05:07.626Z,19.60
2018-09-09T21:07:35.869Z,19.60
2018-09-09T21:10:04.094Z,19.50
2018-09-09T21:12:32.314Z,19.50
2018-09-09T21:15:03.669Z,19.40
2018-09-09T21:17:32.169Z,19.40
2018-09-09T21:20:00.461Z,19.40
2018-09-09T21:22:28.962Z,19.40
2018-09-09T21:24:57.237Z,19.30
2018-09-09T21:27:25.605Z,19.30
2018-09-09T21:29:53.905Z,19.30
2018-09-09T21:32:22.166Z,19.30
2018-09-09T21:34:51.167Z,19.20
2018-09-09T21:37:19.663Z,19.20
2018-09-09T21:39:47.852Z,19.10
2018-09-09T21:42:16.066Z,19.00
2018-09-09T21:44:44.302Z,18.90
2018-09-09T21:47:12.566Z,18.90
2018-09-09T21:49:40.932Z,18.90
2018-09-09T21:52:09.171Z,18.90
2018-09-09T21:54:37.373Z,18.80
2018-09-09T21:57:05.705Z,18.80
2018-09-09T21:59:34.503Z,18.70
2018-09-09T22:02:03.977Z,18.80
2018-09-09T22:04:33.157Z,18.80
2018-09-09T22:07:01.750Z,18.80
2018-09-09T22:09:29.955Z,18.80
2018-09-09T22:11:58.197Z,18.80
2018-09-09T22:14:26.786Z,18.70
2018-09-09T22:16:55.066Z,18.70
2018-09-09T22:19:23.262Z,18.70
2018-09-09T22:21:51.485Z,18.70
2018-09-09T22:24:21.012Z,18.60
2018-09-09T22:26:49.397Z,18.50
2018-09-09T22:29:17.775Z,18.50
2018-09-09T22:31:45.953Z,18.40
2018-09-09T22:34:14.474Z,18.40
2018-09-09T22:36:42.950Z,18.30
2018-09-09T22:39:11.841Z,18.20
2018-09-09T22:41:41.339Z,18.10
2018-09-09T22:44:11.649Z,18.10
2018-09-09T22:46:39.936Z,17.90
2018-09-09T22:49:08.214Z,17.90
2018-09-09T22:51:36.530Z,17.80
2018-09-09T22:54:04.840Z,17.80
2018-09-09T22:56:33.201Z,17.70
2018-09-09T22:59:01.533Z,17.70
2018-09-09T23:01:29.878Z,17.80
2018-09-09T23:03:58.130Z,17.80
2018-09-09T23:06:26.448Z,17.90
2018-09-09T23:08:54.653Z,18.00
2018-09-09T23:11:22.833Z,18.00
2018-09-09T23:13:51.693Z,18.00
2018-09-09T23:16:20.026Z,17.90
2018-09-09T23:18:48.214Z,18.00
2018-09-09T23:21:16.825Z,18.00
2018-09-09T23:23:45.042Z,18.00
2018-09-09T23:26:13.254Z,18.00
2018-09-09T23:28:41.680Z,17.90
2018-09-09T23:31:09.906Z,17.90
2018-09-09T23:33:38.095Z,17.80
2018-09-09T23:36:06.614Z,17.80
2018-09-09T23:38:35.241Z,17.80
2018-09-09T23:41:03.453Z,17.80
2018-09-09T23:43:31.838Z,17.90
2018-09-09T23:46:00.133Z,17.90
2018-09-09T23:48:28.365Z,18.00
2018-09-09T23:50:56.621Z,18.00
2018-09-09T23:53:24.830Z,18.00
2018-09-09T23:55:53.043Z,17.90
2018-09-09T23:58:21.358Z,17.90
